sensor_id;sensor_type;location;lat;lon;timestamp;pressure;altitude;pressure_sealevel;temperature;humidity
38718;BME280;24468;52.128;9.278;2023-02-03T00:01:04;101224.53;;;8.53;100.00
38718;BME280;24468;52.128;9.278;2023-02-03T00:03:29;101215.94;;;8.37;100.00
38718;BME280;24468;52.128;9.278;2023-02-03T00:05:55;101211.44;;;8.36;100.00
38718;BME280;24468;52.128;9.278;2023-02-03T00:08:21;101219.59;;;8.33;100.00
38718;BME280;24468;52.128;9.278;2023-02-03T00:10:47;101222.94;;;8.44;100.00
38718;BME280;24468;52.128;9.278;2023-02-03T00:13:13;101200.69;;;8.39;100.00
38718;BME280;24468;52.128;9.278;2023-02-03T00:15:39;101200.63;;;8.41;100.00
38718;BME280;24468;52.128;9.278;2023-02-03T00:18:05;101177.28;;;8.43;100.00
38718;BME280;24468;52.128;9.278;2023-02-03T00:20:31;101164.78;;;8.40;100.00
38718;BME280;24468;52.128;9.278;2023-02-03T00:23:08;101191.69;;;8.40;100.00
38718;BME280;24468;52.128;9.278;2023-02-03T00:25:34;101170.09;;;8.43;100.00
38718;BME280;24468;52.128;9.278;2023-02-03T00:28:00;101171.16;;;8.72;100.00
38718;BME280;24468;52.128;9.278;2023-02-03T00:30:27;101173.47;;;8.52;100.00
38718;BME280;24468;52.128;9.278;2023-02-03T00:32:52;101184.88;;;8.61;100.00
38718;BME280;24468;52.128;9.278;2023-02-03T00:35:18;101185.00;;;8.57;100.00
38718;BME280;24468;52.128;9.278;2023-02-03T00:37:43;101184.66;;;8.69;100.00
38718;BME280;24468;52.128;9.278;2023-02-03T00:40:14;101167.56;;;8.36;100.00
38718;BME280;24468;52.128;9.278;2023-02-03T00:42:40;101183.94;;;8.62;100.00
38718;BME280;24468;52.128;9.278;2023-02-03T00:45:06;101178.69;;;8.58;100.00
38718;BME280;24468;52.128;9.278;2023-02-03T00:47:32;101183.19;;;8.57;100.00
38718;BME280;24468;52.128;9.278;2023-02-03T00:49:57;101188.31;;;8.66;100.00
38718;BME280;24468;52.128;9.278;2023-02-03T00:52:22;101180.56;;;8.56;100.00
38718;BME280;24468;52.128;9.278;2023-02-03T00:54:48;101180.38;;;8.62;100.00
38718;BME280;24468;52.128;9.278;2023-02-03T00:57:13;101181.44;;;8.56;100.00
38718;BME280;24468;52.128;9.278;2023-02-03T00:59:39;101167.84;;;8.61;100.00
38718;BME280;24468;52.128;9.278;2023-02-03T01:02:05;101183.00;;;8.65;100.00
38718;BME280;24468;52.128;9.278;2023-02-03T01:04:30;101188.28;;;8.68;100.00
38718;BME280;24468;52.128;9.278;2023-02-03T01:06:56;101177.88;;;8.54;100.00
38718;BME280;24468;52.128;9.278;2023-02-03T01:09:24;101181.38;;;8.58;100.00
38718;BME280;24468;52.128;9.278;2023-02-03T01:11:50;101164.34;;;8.59;100.00
38718;BME280;24468;52.128;9.278;2023-02-03T01:14:16;101173.19;;;8.62;100.00
38718;BME280;24468;52.128;9.278;2023-02-03T01:16:41;101185.28;;;8.80;100.00
38718;BME280;24468;52.128;9.278;2023-02-03T01:19:07;101177.88;;;8.54;100.00
38718;BME280;24468;52.128;9.278;2023-02-03T01:21:33;101195.59;;;8.63;100.00
38718;BME280;24468;52.128;9.278;2023-02-03T01:24:00;101199.69;;;8.78;100.00
38718;BME280;24468;52.128;9.278;2023-02-03T01:26:26;101173.69;;;8.77;100.00
38718;BME280;24468;52.128;9.278;2023-02-03T01:28:54;101180.03;;;8.74;100.00
38718;BME280;24468;52.128;9.278;2023-02-03T01:31:36;101186.44;;;8.70;100.00
38718;BME280;24468;52.128;9.278;2023-02-03T01:34:05;101174.81;;;8.70;100.00
38718;BME280;24468;52.128;9.278;2023-02-03T01:36:33;101177.59;;;8.65;100.00
38718;BME280;24468;52.128;9.278;2023-02-03T01:38:59;101190.03;;;8.69;100.00
38718;BME280;24468;52.128;9.278;2023-02-03T01:41:28;101178.13;;;8.79;100.00
38718;BME280;24468;52.128;9.278;2023-02-03T01:43:57;101189.44;;;8.58;100.00
38718;BME280;24468;52.128;9.278;2023-02-03T01:46:36;101182.22;;;8.60;100.00
38718;BME280;24468;52.128;9.278;2023-02-03T01:49:13;101180.47;;;8.59;100.00
38718;BME280;24468;52.128;9.278;2023-02-03T01:51:43;101158.09;;;8.57;100.00
38718;BME280;24468;52.128;9.278;2023-02-03T01:54:22;101207.13;;;8.66;100.00
38718;BME280;24468;52.128;9.278;2023-02-03T01:56:55;101162.41;;;8.64;100.00
38718;BME280;24468;52.128;9.278;2023-02-03T01:59:23;101163.19;;;8.67;100.00
38718;BME280;24468;52.128;9.278;2023-02-03T02:01:50;101158.88;;;8.62;100.00
38718;BME280;24468;52.128;9.278;2023-02-03T02:04:18;101143.50;;;8.67;100.00
38718;BME280;24468;52.128;9.278;2023-02-03T02:06:44;101151.59;;;8.65;100.00
38718;BME280;24468;52.128;9.278;2023-02-03T02:09:13;101172.16;;;8.66;100.00
38718;BME280;24468;52.128;9.278;2023-02-03T02:11:39;101147.94;;;8.68;100.00
38718;BME280;24468;52.128;9.278;2023-02-03T02:14:05;101146.22;;;8.65;100.00
38718;BME280;24468;52.128;9.278;2023-02-03T02:16:48;101121.06;;;8.66;100.00
38718;BME280;24468;52.128;9.278;2023-02-03T02:19:49;101128.06;;;8.74;100.00
38718;BME280;24468;52.128;9.278;2023-02-03T02:22:33;101110.09;;;8.74;100.00
38718;BME280;24468;52.128;9.278;2023-02-03T02:25:53;101117.38;;;8.71;100.00
38718;BME280;24468;52.128;9.278;2023-02-03T02:37:37;101083.72;;;8.56;100.00
38718;BME280;24468;52.128;9.278;2023-02-03T02:43:18;101039.19;;;8.45;100.00
38718;BME280;24468;52.128;9.278;2023-02-03T02:45:53;101050.53;;;8.57;100.00
38718;BME280;24468;52.128;9.278;2023-02-03T02:51:11;101076.25;;;8.67;100.00
38718;BME280;24468;52.128;9.278;2023-02-03T02:53:57;101099.69;;;8.62;100.00
38718;BME280;24468;52.128;9.278;2023-02-03T02:56:26;101124.59;;;8.68;100.00
38718;BME280;24468;52.128;9.278;2023-02-03T02:58:54;101107.78;;;8.60;100.00
38718;BME280;24468;52.128;9.278;2023-02-03T03:01:21;101110.19;;;8.71;100.00
38718;BME280;24468;52.128;9.278;2023-02-03T03:03:47;101105.66;;;8.73;100.00
38718;BME280;24468;52.128;9.278;2023-02-03T03:06:30;101103.16;;;8.67;100.00
38718;BME280;24468;52.128;9.278;2023-02-03T03:09:08;101103.63;;;8.81;100.00
38718;BME280;24468;52.128;9.278;2023-02-03T03:11:55;101081.25;;;8.79;100.00
38718;BME280;24468;52.128;9.278;2023-02-03T03:14:25;101095.75;;;8.75;100.00
38718;BME280;24468;52.128;9.278;2023-02-03T03:16:58;101100.09;;;8.79;100.00
38718;BME280;24468;52.128;9.278;2023-02-03T03:19:31;101097.50;;;8.76;100.00
38718;BME280;24468;52.128;9.278;2023-02-03T03:22:03;101094.44;;;8.57;100.00
38718;BME280;24468;52.128;9.278;2023-02-03T03:24:36;101089.53;;;8.72;100.00
38718;BME280;24468;52.128;9.278;2023-02-03T03:27:22;101100.59;;;8.61;100.00
38718;BME280;24468;52.128;9.278;2023-02-03T03:30:17;101063.22;;;8.83;100.00
38718;BME280;24468;52.128;9.278;2023-02-03T03:32:41;101059.16;;;8.68;100.00
38718;BME280;24468;52.128;9.278;2023-02-03T03:35:07;101047.41;;;8.72;100.00
38718;BME280;24468;52.128;9.278;2023-02-03T03:37:42;101052.38;;;8.55;100.00
38718;BME280;24468;52.128;9.278;2023-02-03T03:40:36;101056.66;;;8.62;100.00
38718;BME280;24468;52.128;9.278;2023-02-03T03:43:07;101054.56;;;8.72;100.00
38718;BME280;24468;52.128;9.278;2023-02-03T03:46:09;101036.13;;;8.58;100.00
38718;BME280;24468;52.128;9.278;2023-02-03T03:48:53;101008.34;;;8.59;100.00
38718;BME280;24468;52.128;9.278;2023-02-03T03:51:41;101038.81;;;8.58;100.00
38718;BME280;24468;52.128;9.278;2023-02-03T03:54:15;101066.78;;;8.52;100.00
38718;BME280;24468;52.128;9.278;2023-02-03T03:59:19;101040.44;;;8.65;100.00
38718;BME280;24468;52.128;9.278;2023-02-03T04:01:47;101036.03;;;8.61;100.00
38718;BME280;24468;52.128;9.278;2023-02-03T04:04:15;101037.84;;;8.62;100.00
38718;BME280;24468;52.128;9.278;2023-02-03T04:06:41;101032.63;;;8.56;100.00
38718;BME280;24468;52.128;9.278;2023-02-03T04:09:06;101031.41;;;8.66;100.00
38718;BME280;24468;52.128;9.278;2023-02-03T04:11:32;101016.53;;;8.54;100.00
38718;BME280;24468;52.128;9.278;2023-02-03T04:14:16;101023.22;;;8.39;100.00
38718;BME280;24468;52.128;9.278;2023-02-03T04:16:42;101036.31;;;8.52;100.00
38718;BME280;24468;52.128;9.278;2023-02-03T04:19:07;101033.06;;;8.72;100.00
38718;BME280;24468;52.128;9.278;2023-02-03T04:21:33;100998.72;;;8.50;100.00
38718;BME280;24468;52.128;9.278;2023-02-03T04:23:58;101033.97;;;8.72;100.00
38718;BME280;24468;52.128;9.278;2023-02-03T04:26:24;101031.88;;;8.51;100.00
38718;BME280;24468;52.128;9.278;2023-02-03T04:28:49;101040.84;;;8.50;100.00
38718;BME280;24468;52.128;9.278;2023-02-03T04:31:15;101025.34;;;8.59;100.00
38718;BME280;24468;52.128;9.278;2023-02-03T04:33:41;101017.94;;;8.67;100.00
38718;BME280;24468;52.128;9.278;2023-02-03T04:36:07;101039.50;;;8.66;100.00
38718;BME280;24468;52.128;9.278;2023-02-03T04:38:33;101012.59;;;8.66;100.00
38718;BME280;24468;52.128;9.278;2023-02-03T04:40:58;101046.69;;;8.65;100.00
38718;BME280;24468;52.128;9.278;2023-02-03T04:43:24;101027.59;;;8.75;100.00
38718;BME280;24468;52.128;9.278;2023-02-03T04:45:49;101020.53;;;8.71;100.00
38718;BME280;24468;52.128;9.278;2023-02-03T04:48:15;100986.84;;;8.57;100.00
38718;BME280;24468;52.128;9.278;2023-02-03T04:50:40;100980.97;;;8.74;100.00
38718;BME280;24468;52.128;9.278;2023-02-03T04:53:06;101006.16;;;8.72;100.00
38718;BME280;24468;52.128;9.278;2023-02-03T04:55:31;101029.31;;;8.77;100.00
38718;BME280;24468;52.128;9.278;2023-02-03T04:57:59;101000.03;;;8.66;100.00
38718;BME280;24468;52.128;9.278;2023-02-03T05:00:26;100995.94;;;8.83;100.00
38718;BME280;24468;52.128;9.278;2023-02-03T05:02:52;100996.31;;;8.72;100.00
38718;BME280;24468;52.128;9.278;2023-02-03T05:05:17;100992.00;;;8.65;100.00
38718;BME280;24468;52.128;9.278;2023-02-03T05:07:43;101003.56;;;8.68;100.00
38718;BME280;24468;52.128;9.278;2023-02-03T05:10:09;101001.59;;;8.75;100.00
38718;BME280;24468;52.128;9.278;2023-02-03T05:12:34;100988.81;;;8.82;100.00
38718;BME280;24468;52.128;9.278;2023-02-03T05:15:00;101002.66;;;8.70;100.00
38718;BME280;24468;52.128;9.278;2023-02-03T05:17:25;100970.31;;;8.71;100.00
38718;BME280;24468;52.128;9.278;2023-02-03T05:19:51;100999.97;;;8.70;100.00
38718;BME280;24468;52.128;9.278;2023-02-03T05:22:16;100988.06;;;8.77;100.00
38718;BME280;24468;52.128;9.278;2023-02-03T05:24:42;100990.72;;;8.78;100.00
38718;BME280;24468;52.128;9.278;2023-02-03T05:27:07;100973.94;;;8.70;100.00
38718;BME280;24468;52.128;9.278;2023-02-03T05:29:33;100974.72;;;8.74;100.00
38718;BME280;24468;52.128;9.278;2023-02-03T05:31:58;100980.06;;;8.75;100.00
38718;BME280;24468;52.128;9.278;2023-02-03T05:34:24;100941.56;;;8.73;100.00
38718;BME280;24468;52.128;9.278;2023-02-03T05:36:50;100960.16;;;8.81;100.00
38718;BME280;24468;52.128;9.278;2023-02-03T05:39:15;100984.59;;;8.73;100.00
38718;BME280;24468;52.128;9.278;2023-02-03T05:41:41;100970.59;;;8.62;100.00
38718;BME280;24468;52.128;9.278;2023-02-03T05:44:24;100956.84;;;8.71;100.00
38718;BME280;24468;52.128;9.278;2023-02-03T05:46:56;100983.75;;;8.71;100.00
38718;BME280;24468;52.128;9.278;2023-02-03T05:49:23;100984.78;;;8.67;100.00
38718;BME280;24468;52.128;9.278;2023-02-03T05:51:52;100975.75;;;8.70;100.00
38718;BME280;24468;52.128;9.278;2023-02-03T05:54:19;100979.56;;;8.61;100.00
38718;BME280;24468;52.128;9.278;2023-02-03T05:56:44;100997.22;;;8.71;100.00
38718;BME280;24468;52.128;9.278;2023-02-03T05:59:10;100983.22;;;8.58;100.00
38718;BME280;24468;52.128;9.278;2023-02-03T06:01:36;101007.06;;;8.72;100.00
38718;BME280;24468;52.128;9.278;2023-02-03T06:04:02;100967.94;;;8.60;100.00
38718;BME280;24468;52.128;9.278;2023-02-03T06:06:29;100972.97;;;8.73;100.00
38718;BME280;24468;52.128;9.278;2023-02-03T06:09:07;100974.44;;;8.83;100.00
38718;BME280;24468;52.128;9.278;2023-02-03T06:11:34;100963.09;;;8.73;100.00
38718;BME280;24468;52.128;9.278;2023-02-03T06:14:00;100966.66;;;8.74;100.00
38718;BME280;24468;52.128;9.278;2023-02-03T06:16:27;100978.75;;;8.59;100.00
38718;BME280;24468;52.128;9.278;2023-02-03T06:18:54;100981.53;;;8.56;100.00
38718;BME280;24468;52.128;9.278;2023-02-03T06:21:24;100959.97;;;8.57;100.00
38718;BME280;24468;52.128;9.278;2023-02-03T06:23:49;100965.63;;;8.48;100.00
38718;BME280;24468;52.128;9.278;2023-02-03T06:26:15;100978.69;;;8.60;100.00
38718;BME280;24468;52.128;9.278;2023-02-03T06:28:40;100978.47;;;8.68;100.00
38718;BME280;24468;52.128;9.278;2023-02-03T06:31:06;101008.84;;;8.40;100.00
38718;BME280;24468;52.128;9.278;2023-02-03T06:33:32;100960.28;;;8.46;100.00
38718;BME280;24468;52.128;9.278;2023-02-03T06:35:58;100944.13;;;8.46;100.00
38718;BME280;24468;52.128;9.278;2023-02-03T06:38:23;100946.13;;;8.38;100.00
38718;BME280;24468;52.128;9.278;2023-02-03T06:40:49;100963.84;;;8.47;100.00
38718;BME280;24468;52.128;9.278;2023-02-03T06:43:15;100994.47;;;8.41;100.00
38718;BME280;24468;52.128;9.278;2023-02-03T06:45:44;100967.84;;;8.31;100.00
38718;BME280;24468;52.128;9.278;2023-02-03T06:48:11;100954.69;;;8.54;100.00
38718;BME280;24468;52.128;9.278;2023-02-03T06:50:36;100963.72;;;8.52;100.00
38718;BME280;24468;52.128;9.278;2023-02-03T06:53:02;100963.28;;;8.34;100.00
38718;BME280;24468;52.128;9.278;2023-02-03T06:55:27;100968.53;;;8.40;100.00
38718;BME280;24468;52.128;9.278;2023-02-03T06:57:53;100976.00;;;8.28;100.00
38718;BME280;24468;52.128;9.278;2023-02-03T07:00:19;100987.13;;;8.15;100.00
38718;BME280;24468;52.128;9.278;2023-02-03T07:02:45;100974.53;;;8.17;100.00
38718;BME280;24468;52.128;9.278;2023-02-03T07:05:11;100979.75;;;8.22;100.00
38718;BME280;24468;52.128;9.278;2023-02-03T07:07:36;100972.94;;;8.09;100.00
38718;BME280;24468;52.128;9.278;2023-02-03T07:10:05;100968.41;;;8.11;100.00
38718;BME280;24468;52.128;9.278;2023-02-03T07:12:31;100964.75;;;8.15;100.00
38718;BME280;24468;52.128;9.278;2023-02-03T07:14:56;100974.22;;;7.95;100.00
38718;BME280;24468;52.128;9.278;2023-02-03T07:17:22;101011.66;;;8.01;100.00
38718;BME280;24468;52.128;9.278;2023-02-03T07:19:48;100994.63;;;8.02;100.00
38718;BME280;24468;52.128;9.278;2023-02-03T07:22:13;100933.75;;;8.01;100.00
38718;BME280;24468;52.128;9.278;2023-02-03T07:24:39;100982.28;;;7.95;100.00
38718;BME280;24468;52.128;9.278;2023-02-03T07:27:04;100984.75;;;8.03;100.00
38718;BME280;24468;52.128;9.278;2023-02-03T07:29:30;100967.75;;;8.02;100.00
38718;BME280;24468;52.128;9.278;2023-02-03T07:31:55;100950.19;;;7.89;100.00
38718;BME280;24468;52.128;9.278;2023-02-03T07:34:21;100955.44;;;7.94;100.00
38718;BME280;24468;52.128;9.278;2023-02-03T07:36:47;100942.81;;;7.97;100.00
38718;BME280;24468;52.128;9.278;2023-02-03T07:39:12;100936.47;;;8.00;100.00
38718;BME280;24468;52.128;9.278;2023-02-03T07:41:38;100926.69;;;7.97;100.00
38718;BME280;24468;52.128;9.278;2023-02-03T07:44:04;100931.34;;;7.91;100.00
38718;BME280;24468;52.128;9.278;2023-02-03T07:46:30;100924.19;;;7.90;100.00
38718;BME280;24468;52.128;9.278;2023-02-03T07:48:55;100958.09;;;7.95;100.00
38718;BME280;24468;52.128;9.278;2023-02-03T07:51:21;100934.72;;;7.99;100.00
38718;BME280;24468;52.128;9.278;2023-02-03T07:53:47;100955.34;;;7.97;100.00
38718;BME280;24468;52.128;9.278;2023-02-03T07:56:12;100961.38;;;8.07;100.00
38718;BME280;24468;52.128;9.278;2023-02-03T07:58:38;100945.56;;;7.94;100.00
38718;BME280;24468;52.128;9.278;2023-02-03T08:01:11;100913.91;;;8.06;100.00
38718;BME280;24468;52.128;9.278;2023-02-03T08:03:37;100915.13;;;7.95;100.00
38718;BME280;24468;52.128;9.278;2023-02-03T08:06:03;100939.88;;;8.07;100.00
38718;BME280;24468;52.128;9.278;2023-02-03T08:08:30;100998.19;;;8.03;100.00
38718;BME280;24468;52.128;9.278;2023-02-03T08:10:55;100980.97;;;8.10;100.00
38718;BME280;24468;52.128;9.278;2023-02-03T08:13:21;100950.25;;;8.20;100.00
38718;BME280;24468;52.128;9.278;2023-02-03T08:15:47;100947.84;;;8.10;100.00
38718;BME280;24468;52.128;9.278;2023-02-03T08:18:13;100922.94;;;8.03;100.00
38718;BME280;24468;52.128;9.278;2023-02-03T08:20:38;100938.75;;;8.15;100.00
38718;BME280;24468;52.128;9.278;2023-02-03T08:23:04;100938.94;;;8.08;100.00
38718;BME280;24468;52.128;9.278;2023-02-03T08:25:30;100932.72;;;8.06;100.00
38718;BME280;24468;52.128;9.278;2023-02-03T08:27:55;100926.16;;;8.17;100.00
38718;BME280;24468;52.128;9.278;2023-02-03T08:30:22;100913.59;;;8.18;100.00
38718;BME280;24468;52.128;9.278;2023-02-03T08:32:47;100928.78;;;8.19;100.00
38718;BME280;24468;52.128;9.278;2023-02-03T08:35:13;100909.84;;;8.23;100.00
38718;BME280;24468;52.128;9.278;2023-02-03T08:37:39;100902.69;;;8.22;100.00
38718;BME280;24468;52.128;9.278;2023-02-03T08:40:06;100899.56;;;8.39;100.00
38718;BME280;24468;52.128;9.278;2023-02-03T08:42:31;100903.31;;;8.32;100.00
38718;BME280;24468;52.128;9.278;2023-02-03T08:44:57;100922.13;;;8.32;100.00
38718;BME280;24468;52.128;9.278;2023-02-03T08:47:24;100927.41;;;8.35;100.00
38718;BME280;24468;52.128;9.278;2023-02-03T08:49:49;100934.97;;;8.54;100.00
38718;BME280;24468;52.128;9.278;2023-02-03T08:52:15;100942.19;;;8.52;100.00
38718;BME280;24468;52.128;9.278;2023-02-03T08:54:41;100941.59;;;8.42;100.00
38718;BME280;24468;52.128;9.278;2023-02-03T08:57:07;100958.16;;;8.58;100.00
38718;BME280;24468;52.128;9.278;2023-02-03T08:59:34;100924.91;;;8.60;100.00
38718;BME280;24468;52.128;9.278;2023-02-03T09:02:02;100935.00;;;8.52;100.00
38718;BME280;24468;52.128;9.278;2023-02-03T09:04:28;100996.84;;;8.52;100.00
38718;BME280;24468;52.128;9.278;2023-02-03T09:06:54;100954.81;;;8.50;100.00
38718;BME280;24468;52.128;9.278;2023-02-03T09:09:21;100970.50;;;8.65;100.00
38718;BME280;24468;52.128;9.278;2023-02-03T09:11:47;100959.84;;;8.62;100.00
38718;BME280;24468;52.128;9.278;2023-02-03T09:14:13;100986.34;;;8.74;100.00
38718;BME280;24468;52.128;9.278;2023-02-03T09:16:39;100940.03;;;8.64;100.00
38718;BME280;24468;52.128;9.278;2023-02-03T09:19:04;100934.91;;;8.85;100.00
38718;BME280;24468;52.128;9.278;2023-02-03T09:21:30;100915.44;;;8.77;100.00
38718;BME280;24468;52.128;9.278;2023-02-03T09:23:55;100929.81;;;8.76;100.00
38718;BME280;24468;52.128;9.278;2023-02-03T09:26:24;100941.38;;;8.79;100.00
38718;BME280;24468;52.128;9.278;2023-02-03T09:28:51;100923.50;;;8.77;100.00
38718;BME280;24468;52.128;9.278;2023-02-03T09:31:17;100978.34;;;8.73;100.00
38718;BME280;24468;52.128;9.278;2023-02-03T09:33:44;100931.00;;;8.95;100.00
38718;BME280;24468;52.128;9.278;2023-02-03T09:36:10;100940.66;;;9.02;100.00
38718;BME280;24468;52.128;9.278;2023-02-03T09:38:36;100978.06;;;8.82;100.00
38718;BME280;24468;52.128;9.278;2023-02-03T09:41:34;100969.31;;;8.75;100.00
38718;BME280;24468;52.128;9.278;2023-02-03T09:46:54;100966.31;;;8.55;100.00
38718;BME280;24468;52.128;9.278;2023-02-03T09:49:24;100972.44;;;8.60;100.00
38718;BME280;24468;52.128;9.278;2023-02-03T09:51:56;100990.41;;;8.58;100.00
38718;BME280;24468;52.128;9.278;2023-02-03T09:54:36;100988.03;;;8.47;100.00
38718;BME280;24468;52.128;9.278;2023-02-03T09:57:23;100972.94;;;8.43;100.00
38718;BME280;24468;52.128;9.278;2023-02-03T09:59:50;100981.16;;;8.37;100.00
38718;BME280;24468;52.128;9.278;2023-02-03T10:02:40;100981.34;;;8.29;100.00
38718;BME280;24468;52.128;9.278;2023-02-03T10:19:48;100983.94;;;8.32;100.00
38718;BME280;24468;52.128;9.278;2023-02-03T10:22:20;100989.16;;;8.38;100.00
38718;BME280;24468;52.128;9.278;2023-02-03T10:25:00;100991.63;;;8.15;100.00
38718;BME280;24468;52.128;9.278;2023-02-03T10:27:28;100995.25;;;8.12;100.00
38718;BME280;24468;52.128;9.278;2023-02-03T10:30:04;101004.66;;;7.96;100.00
38718;BME280;24468;52.128;9.278;2023-02-03T10:32:31;100993.81;;;7.99;100.00
38718;BME280;24468;52.128;9.278;2023-02-03T10:34:56;100994.78;;;7.96;100.00
38718;BME280;24468;52.128;9.278;2023-02-03T10:37:37;100983.88;;;8.02;100.00
38718;BME280;24468;52.128;9.278;2023-02-03T10:40:12;101011.19;;;7.86;100.00
38718;BME280;24468;52.128;9.278;2023-02-03T10:42:38;101013.25;;;7.74;100.00
38718;BME280;24468;52.128;9.278;2023-02-03T10:45:36;101005.00;;;7.82;100.00
38718;BME280;24468;52.128;9.278;2023-02-03T10:48:03;101006.59;;;7.89;100.00
38718;BME280;24468;52.128;9.278;2023-02-03T10:50:31;101026.50;;;7.82;100.00
38718;BME280;24468;52.128;9.278;2023-02-03T10:53:32;100991.16;;;7.97;100.00
38718;BME280;24468;52.128;9.278;2023-02-03T10:56:07;101021.81;;;7.90;100.00
38718;BME280;24468;52.128;9.278;2023-02-03T10:58:37;101017.91;;;8.04;100.00
38718;BME280;24468;52.128;9.278;2023-02-03T11:01:12;101001.63;;;8.08;100.00
38718;BME280;24468;52.128;9.278;2023-02-03T11:03:54;101075.00;;;8.12;100.00
38718;BME280;24468;52.128;9.278;2023-02-03T11:06:21;101031.09;;;8.11;100.00
38718;BME280;24468;52.128;9.278;2023-02-03T11:08:49;101035.69;;;8.08;100.00
38718;BME280;24468;52.128;9.278;2023-02-03T11:11:26;101041.06;;;8.08;100.00
38718;BME280;24468;52.128;9.278;2023-02-03T11:16:31;100985.22;;;8.19;100.00
38718;BME280;24468;52.128;9.278;2023-02-03T11:19:15;101002.31;;;8.16;100.00
38718;BME280;24468;52.128;9.278;2023-02-03T11:21:51;100990.31;;;8.28;100.00
38718;BME280;24468;52.128;9.278;2023-02-03T11:24:36;101002.00;;;8.27;100.00
38718;BME280;24468;52.128;9.278;2023-02-03T11:27:12;100985.78;;;8.30;100.00
38718;BME280;24468;52.128;9.278;2023-02-03T11:29:48;101026.19;;;8.29;100.00
38718;BME280;24468;52.128;9.278;2023-02-03T11:32:32;101003.47;;;8.40;100.00
38718;BME280;24468;52.128;9.278;2023-02-03T11:35:13;101017.69;;;8.45;100.00
38718;BME280;24468;52.128;9.278;2023-02-03T11:37:42;101027.84;;;8.33;100.00
38718;BME280;24468;52.128;9.278;2023-02-03T11:42:42;101021.47;;;8.37;100.00
38718;BME280;24468;52.128;9.278;2023-02-03T11:57:24;101013.53;;;8.65;100.00
38718;BME280;24468;52.128;9.278;2023-02-03T12:06:26;101027.38;;;8.82;100.00
38718;BME280;24468;52.128;9.278;2023-02-03T12:09:25;101030.78;;;8.89;100.00
38718;BME280;24468;52.128;9.278;2023-02-03T12:12:19;101034.88;;;8.71;100.00
38718;BME280;24468;52.128;9.278;2023-02-03T12:15:31;101082.03;;;8.83;100.00
38718;BME280;24468;52.128;9.278;2023-02-03T12:20:59;101036.31;;;9.12;100.00
38718;BME280;24468;52.128;9.278;2023-02-03T12:26:24;101044.50;;;9.39;100.00
38718;BME280;24468;52.128;9.278;2023-02-03T12:29:03;101048.72;;;9.18;100.00
38718;BME280;24468;52.128;9.278;2023-02-03T12:31:41;101076.47;;;9.20;100.00
38718;BME280;24468;52.128;9.278;2023-02-03T12:34:20;101023.63;;;9.18;100.00
38718;BME280;24468;52.128;9.278;2023-02-03T12:37:17;101032.13;;;9.32;100.00
38718;BME280;24468;52.128;9.278;2023-02-03T12:39:52;101043.75;;;9.34;100.00
38718;BME280;24468;52.128;9.278;2023-02-03T12:42:40;101051.69;;;9.39;100.00
38718;BME280;24468;52.128;9.278;2023-02-03T12:45:28;101048.06;;;9.40;100.00
38718;BME280;24468;52.128;9.278;2023-02-03T12:48:01;101048.19;;;9.35;100.00
38718;BME280;24468;52.128;9.278;2023-02-03T12:50:51;101067.94;;;9.35;100.00
38718;BME280;24468;52.128;9.278;2023-02-03T12:53:26;101068.41;;;9.50;100.00
38718;BME280;24468;52.128;9.278;2023-02-03T12:56:11;101077.78;;;9.37;100.00
38718;BME280;24468;52.128;9.278;2023-02-03T12:58:55;101074.06;;;9.11;100.00
38718;BME280;24468;52.128;9.278;2023-02-03T13:02:17;101088.97;;;9.23;100.00
38718;BME280;24468;52.128;9.278;2023-02-03T13:04:50;101049.47;;;9.23;100.00
38718;BME280;24468;52.128;9.278;2023-02-03T13:07:42;101090.22;;;9.11;100.00
38718;BME280;24468;52.128;9.278;2023-02-03T13:10:32;101090.63;;;9.27;100.00
38718;BME280;24468;52.128;9.278;2023-02-03T13:13:02;101062.38;;;9.42;100.00
38718;BME280;24468;52.128;9.278;2023-02-03T13:15:45;101069.09;;;9.27;100.00
38718;BME280;24468;52.128;9.278;2023-02-03T13:20:44;101053.72;;;9.60;100.00
38718;BME280;24468;52.128;9.278;2023-02-03T13:23:13;101066.91;;;9.68;100.00
38718;BME280;24468;52.128;9.278;2023-02-03T13:28:42;101050.50;;;9.47;100.00
38718;BME280;24468;52.128;9.278;2023-02-03T13:31:34;101048.84;;;9.71;100.00
38718;BME280;24468;52.128;9.278;2023-02-03T13:34:11;101079.38;;;9.72;100.00
38718;BME280;24468;52.128;9.278;2023-02-03T13:39:45;101079.41;;;9.42;100.00
38718;BME280;24468;52.128;9.278;2023-02-03T13:42:17;101052.59;;;9.38;100.00
38718;BME280;24468;52.128;9.278;2023-02-03T13:44:48;101056.84;;;9.46;100.00
38718;BME280;24468;52.128;9.278;2023-02-03T13:47:33;101092.88;;;9.42;100.00
38718;BME280;24468;52.128;9.278;2023-02-03T13:50:14;101054.41;;;9.37;100.00
38718;BME280;24468;52.128;9.278;2023-02-03T13:52:53;101068.81;;;9.36;100.00
38718;BME280;24468;52.128;9.278;2023-02-03T13:55:50;101088.75;;;9.30;100.00
38718;BME280;24468;52.128;9.278;2023-02-03T13:58:29;101083.56;;;9.24;100.00
38718;BME280;24468;52.128;9.278;2023-02-03T14:05:56;101069.94;;;9.29;100.00
38718;BME280;24468;52.128;9.278;2023-02-03T14:16:48;101081.22;;;9.12;100.00
38718;BME280;24468;52.128;9.278;2023-02-03T14:22:16;101096.81;;;8.99;100.00
38718;BME280;24468;52.128;9.278;2023-02-03T14:24:45;101085.25;;;8.97;100.00
38718;BME280;24468;52.128;9.278;2023-02-03T14:27:26;101112.50;;;9.16;100.00
38718;BME280;24468;52.128;9.278;2023-02-03T14:30:28;101110.13;;;9.05;100.00
38718;BME280;24468;52.128;9.278;2023-02-03T14:33:01;101152.56;;;8.96;100.00
38718;BME280;24468;52.128;9.278;2023-02-03T14:35:35;101123.03;;;8.93;100.00
38718;BME280;24468;52.128;9.278;2023-02-03T14:38:10;101137.38;;;8.93;100.00
38718;BME280;24468;52.128;9.278;2023-02-03T14:40:55;101139.50;;;8.82;100.00